sensor_id;sensor_type;location;lat;lon;timestamp;pressure;altitude;pressure_sealevel;temperature;humidity
32083;BME280;18597;48.328;7.932;2023-02-04T00:01:55;101126.31;;;5.94;100.00
32083;BME280;18597;48.328;7.932;2023-02-04T00:04:21;101121.94;;;5.93;100.00
32083;BME280;18597;48.328;7.932;2023-02-04T00:06:47;101113.97;;;5.93;100.00
32083;BME280;18597;48.328;7.932;2023-02-04T00:09:13;101109.44;;;5.95;100.00
32083;BME280;18597;48.328;7.932;2023-02-04T00:11:41;101103.28;;;5.95;100.00
32083;BME280;18597;48.328;7.932;2023-02-04T00:14:07;101106.81;;;5.95;100.00
32083;BME280;18597;48.328;7.932;2023-02-04T00:16:33;101102.00;;;5.83;100.00
32083;BME280;18597;48.328;7.932;2023-02-04T00:18:58;101103.97;;;5.78;100.00
32083;BME280;18597;48.328;7.932;2023-02-04T00:21:24;101101.56;;;5.72;100.00
32083;BME280;18597;48.328;7.932;2023-02-04T00:23:50;101099.59;;;5.77;100.00
32083;BME280;18597;48.328;7.932;2023-02-04T00:26:16;101101.72;;;5.91;100.00
32083;BME280;18597;48.328;7.932;2023-02-04T00:28:42;101104.16;;;5.95;100.00
32083;BME280;18597;48.328;7.932;2023-02-04T00:31:07;101097.97;;;5.95;100.00
32083;BME280;18597;48.328;7.932;2023-02-04T00:33:33;101096.94;;;5.99;100.00
32083;BME280;18597;48.328;7.932;2023-02-04T00:35:59;101094.66;;;5.90;100.00
32083;BME280;18597;48.328;7.932;2023-02-04T00:38:25;101092.03;;;5.88;100.00
32083;BME280;18597;48.328;7.932;2023-02-04T00:40:51;101097.31;;;5.90;100.00
32083;BME280;18597;48.328;7.932;2023-02-04T00:43:16;101093.75;;;5.91;100.00
32083;BME280;18597;48.328;7.932;2023-02-04T00:45:42;101083.22;;;5.88;100.00
32083;BME280;18597;48.328;7.932;2023-02-04T00:48:09;101096.63;;;5.84;100.00
32083;BME280;18597;48.328;7.932;2023-02-04T00:50:35;101097.41;;;5.87;100.00
32083;BME280;18597;48.328;7.932;2023-02-04T00:53:05;101101.38;;;5.98;100.00
32083;BME280;18597;48.328;7.932;2023-02-04T00:55:31;101089.94;;;5.96;100.00
32083;BME280;18597;48.328;7.932;2023-02-04T00:57:57;101105.50;;;6.05;100.00
32083;BME280;18597;48.328;7.932;2023-02-04T01:00:23;101096.28;;;6.14;100.00
32083;BME280;18597;48.328;7.932;2023-02-04T01:02:49;101097.31;;;6.10;100.00
32083;BME280;18597;48.328;7.932;2023-02-04T01:05:15;101088.63;;;6.06;100.00
32083;BME280;18597;48.328;7.932;2023-02-04T01:07:41;101093.09;;;6.06;100.00
32083;BME280;18597;48.328;7.932;2023-02-04T01:10:07;101093.13;;;6.04;100.00
32083;BME280;18597;48.328;7.932;2023-02-04T01:12:33;101096.78;;;6.02;100.00
32083;BME280;18597;48.328;7.932;2023-02-04T01:14:59;101092.34;;;6.02;100.00
32083;BME280;18597;48.328;7.932;2023-02-04T01:17:25;101101.97;;;6.05;100.00
32083;BME280;18597;48.328;7.932;2023-02-04T01:19:51;101097.19;;;6.13;100.00
32083;BME280;18597;48.328;7.932;2023-02-04T01:22:16;101098.44;;;6.04;100.00
32083;BME280;18597;48.328;7.932;2023-02-04T01:24:42;101092.16;;;6.07;100.00
32083;BME280;18597;48.328;7.932;2023-02-04T01:27:08;101093.88;;;6.08;100.00
32083;BME280;18597;48.328;7.932;2023-02-04T01:29:34;101102.22;;;6.19;100.00
32083;BME280;18597;48.328;7.932;2023-02-04T01:32:00;101114.84;;;6.14;100.00
32083;BME280;18597;48.328;7.932;2023-02-04T01:34:26;101115.09;;;6.28;100.00
32083;BME280;18597;48.328;7.932;2023-02-04T01:36:51;101111.78;;;6.23;100.00
32083;BME280;18597;48.328;7.932;2023-02-04T01:39:17;101114.69;;;6.17;100.00
32083;BME280;18597;48.328;7.932;2023-02-04T01:41:43;101120.69;;;6.22;100.00
32083;BME280;18597;48.328;7.932;2023-02-04T01:44:09;101111.94;;;6.20;100.00
32083;BME280;18597;48.328;7.932;2023-02-04T01:46:35;101102.28;;;6.18;100.00
32083;BME280;18597;48.328;7.932;2023-02-04T01:49:03;101097.13;;;6.15;100.00
32083;BME280;18597;48.328;7.932;2023-02-04T01:51:31;101094.53;;;6.13;100.00
32083;BME280;18597;48.328;7.932;2023-02-04T01:53:58;101097.72;;;6.21;100.00
32083;BME280;18597;48.328;7.932;2023-02-04T01:56:26;101097.78;;;6.20;100.00
32083;BME280;18597;48.328;7.932;2023-02-04T01:58:56;101093.38;;;6.19;100.00
32083;BME280;18597;48.328;7.932;2023-02-04T02:01:46;101084.53;;;6.20;100.00
32083;BME280;18597;48.328;7.932;2023-02-04T02:04:32;101095.84;;;6.23;100.00
32083;BME280;18597;48.328;7.932;2023-02-04T02:07:02;101097.84;;;6.18;100.00
32083;BME280;18597;48.328;7.932;2023-02-04T02:09:30;101087.88;;;6.23;100.00
32083;BME280;18597;48.328;7.932;2023-02-04T02:11:57;101085.16;;;6.04;100.00
32083;BME280;18597;48.328;7.932;2023-02-04T02:14:25;101093.19;;;6.03;100.00
32083;BME280;18597;48.328;7.932;2023-02-04T02:16:51;101090.38;;;6.07;100.00
32083;BME280;18597;48.328;7.932;2023-02-04T02:19:28;101083.41;;;6.05;100.00
32083;BME280;18597;48.328;7.932;2023-02-04T02:22:04;101089.28;;;6.11;100.00
32083;BME280;18597;48.328;7.932;2023-02-04T02:24:34;101086.38;;;6.18;100.00
32083;BME280;18597;48.328;7.932;2023-02-04T02:27:05;101091.41;;;6.24;100.00
32083;BME280;18597;48.328;7.932;2023-02-04T02:29:34;101075.75;;;6.18;100.00
32083;BME280;18597;48.328;7.932;2023-02-04T02:32:00;101080.00;;;6.22;100.00
32083;BME280;18597;48.328;7.932;2023-02-04T02:34:27;101080.13;;;6.19;100.00
32083;BME280;18597;48.328;7.932;2023-02-04T02:36:56;101089.88;;;6.18;100.00
32083;BME280;18597;48.328;7.932;2023-02-04T02:39:22;101087.63;;;6.09;100.00
32083;BME280;18597;48.328;7.932;2023-02-04T02:41:49;101085.50;;;6.17;100.00
32083;BME280;18597;48.328;7.932;2023-02-04T02:44:15;101097.06;;;6.16;100.00
32083;BME280;18597;48.328;7.932;2023-02-04T02:46:42;101095.25;;;6.17;100.00
32083;BME280;18597;48.328;7.932;2023-02-04T02:49:16;101096.13;;;6.17;100.00
32083;BME280;18597;48.328;7.932;2023-02-04T02:51:43;101098.91;;;6.14;100.00
32083;BME280;18597;48.328;7.932;2023-02-04T02:54:28;101091.56;;;6.21;100.00
32083;BME280;18597;48.328;7.932;2023-02-04T02:56:56;101095.84;;;6.23;100.00
32083;BME280;18597;48.328;7.932;2023-02-04T02:59:23;101088.81;;;6.22;100.00
32083;BME280;18597;48.328;7.932;2023-02-04T03:01:55;101097.72;;;6.21;100.00
32083;BME280;18597;48.328;7.932;2023-02-04T03:04:23;101096.63;;;6.25;100.00
32083;BME280;18597;48.328;7.932;2023-02-04T03:06:51;101087.09;;;6.21;100.00
32083;BME280;18597;48.328;7.932;2023-02-04T03:09:17;101088.81;;;6.22;100.00
32083;BME280;18597;48.328;7.932;2023-02-04T03:11:44;101087.09;;;6.21;100.00
32083;BME280;18597;48.328;7.932;2023-02-04T03:14:09;101090.69;;;6.20;100.00
32083;BME280;18597;48.328;7.932;2023-02-04T03:16:36;101084.91;;;6.10;100.00
32083;BME280;18597;48.328;7.932;2023-02-04T03:19:05;101081.28;;;6.13;100.00
32083;BME280;18597;48.328;7.932;2023-02-04T03:21:31;101081.91;;;6.18;100.00
32083;BME280;18597;48.328;7.932;2023-02-04T03:23:57;101084.38;;;6.23;100.00
32083;BME280;18597;48.328;7.932;2023-02-04T03:26:24;101075.41;;;6.25;100.00
32083;BME280;18597;48.328;7.932;2023-02-04T03:28:53;101080.94;;;6.21;100.00
32083;BME280;18597;48.328;7.932;2023-02-04T03:31:19;101086.09;;;6.24;100.00
32083;BME280;18597;48.328;7.932;2023-02-04T03:33:45;101085.16;;;6.25;100.00
32083;BME280;18597;48.328;7.932;2023-02-04T03:36:12;101085.31;;;6.22;100.00
32083;BME280;18597;48.328;7.932;2023-02-04T03:38:38;101089.75;;;6.21;100.00
32083;BME280;18597;48.328;7.932;2023-02-04T03:41:04;101105.69;;;6.21;100.00
32083;BME280;18597;48.328;7.932;2023-02-04T03:43:29;101101.00;;;6.26;100.00
32083;BME280;18597;48.328;7.932;2023-02-04T03:45:55;101091.41;;;6.24;100.00
32083;BME280;18597;48.328;7.932;2023-02-04T03:48:21;101092.25;;;6.24;100.00
32083;BME280;18597;48.328;7.932;2023-02-04T03:50:47;101094.81;;;6.27;100.00
32083;BME280;18597;48.328;7.932;2023-02-04T03:53:13;101094.31;;;6.38;100.00
32083;BME280;18597;48.328;7.932;2023-02-04T03:55:39;101097.03;;;6.36;100.00
32083;BME280;18597;48.328;7.932;2023-02-04T03:58:04;101105.34;;;6.29;100.00
32083;BME280;18597;48.328;7.932;2023-02-04T04:00:30;101112.16;;;6.34;100.00
32083;BME280;18597;48.328;7.932;2023-02-04T04:02:57;101107.78;;;6.33;100.00
32083;BME280;18597;48.328;7.932;2023-02-04T04:05:23;101102.19;;;6.39;100.00
32083;BME280;18597;48.328;7.932;2023-02-04T04:07:50;101095.16;;;6.38;100.00
32083;BME280;18597;48.328;7.932;2023-02-04T04:10:16;101100.31;;;6.42;100.00
32083;BME280;18597;48.328;7.932;2023-02-04T04:12:41;101101.34;;;6.39;100.00
32083;BME280;18597;48.328;7.932;2023-02-04T04:15:08;101093.31;;;6.40;100.00
32083;BME280;18597;48.328;7.932;2023-02-04T04:17:34;101105.63;;;6.42;100.00
32083;BME280;18597;48.328;7.932;2023-02-04T04:20:00;101101.06;;;6.45;100.00
32083;BME280;18597;48.328;7.932;2023-02-04T04:22:26;101101.78;;;6.49;100.00
32083;BME280;18597;48.328;7.932;2023-02-04T04:24:52;101099.09;;;6.50;100.00
32083;BME280;18597;48.328;7.932;2023-02-04T04:27:17;101105.88;;;6.56;100.00
32083;BME280;18597;48.328;7.932;2023-02-04T04:29:43;101105.75;;;6.59;100.00
32083;BME280;18597;48.328;7.932;2023-02-04T04:32:09;101099.72;;;6.55;100.00
32083;BME280;18597;48.328;7.932;2023-02-04T04:34:35;101105.81;;;6.57;100.00
32083;BME280;18597;48.328;7.932;2023-02-04T04:37:01;101107.94;;;6.49;100.00
32083;BME280;18597;48.328;7.932;2023-02-04T04:39:27;101109.81;;;6.47;100.00
32083;BME280;18597;48.328;7.932;2023-02-04T04:41:53;101103.66;;;6.47;100.00
32083;BME280;18597;48.328;7.932;2023-02-04T04:44:18;101097.47;;;6.46;100.00
32083;BME280;18597;48.328;7.932;2023-02-04T04:46:44;101099.13;;;6.49;100.00
32083;BME280;18597;48.328;7.932;2023-02-04T04:49:10;101103.97;;;6.59;100.00
32083;BME280;18597;48.328;7.932;2023-02-04T04:51:36;101106.63;;;6.59;100.00
32083;BME280;18597;48.328;7.932;2023-02-04T04:54:02;101111.84;;;6.61;100.00
32083;BME280;18597;48.328;7.932;2023-02-04T04:56:28;101111.59;;;6.67;100.00
32083;BME280;18597;48.328;7.932;2023-02-04T04:58:53;101112.88;;;6.58;100.00
32083;BME280;18597;48.328;7.932;2023-02-04T05:01:19;101117.31;;;6.58;100.00
32083;BME280;18597;48.328;7.932;2023-02-04T05:03:47;101113.94;;;6.54;100.00
32083;BME280;18597;48.328;7.932;2023-02-04T05:06:13;101120.59;;;6.63;100.00
32083;BME280;18597;48.328;7.932;2023-02-04T05:08:39;101125.13;;;6.61;100.00
32083;BME280;18597;48.328;7.932;2023-02-04T05:11:05;101127.78;;;6.61;100.00
32083;BME280;18597;48.328;7.932;2023-02-04T05:13:31;101123.25;;;6.63;100.00
32083;BME280;18597;48.328;7.932;2023-02-04T05:15:57;101125.81;;;6.66;100.00
32083;BME280;18597;48.328;7.932;2023-02-04T05:18:23;101123.00;;;6.69;100.00
32083;BME280;18597;48.328;7.932;2023-02-04T05:20:48;101123.78;;;6.71;100.00
32083;BME280;18597;48.328;7.932;2023-02-04T05:23:14;101125.38;;;6.75;100.00
32083;BME280;18597;48.328;7.932;2023-02-04T05:25:41;101121.63;;;6.79;100.00
32083;BME280;18597;48.328;7.932;2023-02-04T05:28:07;101119.19;;;6.75;100.00
32083;BME280;18597;48.328;7.932;2023-02-04T05:30:33;101126.38;;;6.73;100.00
32083;BME280;18597;48.328;7.932;2023-02-04T05:32:59;101119.41;;;6.70;100.00
32083;BME280;18597;48.328;7.932;2023-02-04T05:35:25;101125.44;;;6.74;100.00
32083;BME280;18597;48.328;7.932;2023-02-04T05:37:50;101124.16;;;6.82;100.00
32083;BME280;18597;48.328;7.932;2023-02-04T05:40:16;101126.22;;;6.76;100.00
32083;BME280;18597;48.328;7.932;2023-02-04T05:42:42;101121.34;;;6.85;100.00
32083;BME280;18597;48.328;7.932;2023-02-04T05:45:14;101122.44;;;6.81;100.00
32083;BME280;18597;48.328;7.932;2023-02-04T05:47:40;101126.81;;;6.82;100.00
32083;BME280;18597;48.328;7.932;2023-02-04T05:50:06;101130.53;;;6.78;100.00
32083;BME280;18597;48.328;7.932;2023-02-04T05:52:32;101123.84;;;6.70;100.00
32083;BME280;18597;48.328;7.932;2023-02-04T05:54:58;101128.38;;;6.86;100.00
32083;BME280;18597;48.328;7.932;2023-02-04T05:57:24;101134.03;;;6.79;100.00
32083;BME280;18597;48.328;7.932;2023-02-04T05:59:50;101143.38;;;6.68;100.00
32083;BME280;18597;48.328;7.932;2023-02-04T06:02:15;101136.19;;;6.71;100.00
32083;BME280;18597;48.328;7.932;2023-02-04T06:04:41;101135.34;;;6.70;100.00
32083;BME280;18597;48.328;7.932;2023-02-04T06:07:07;101145.75;;;6.75;100.00
32083;BME280;18597;48.328;7.932;2023-02-04T06:09:33;101157.25;;;6.75;100.00
32083;BME280;18597;48.328;7.932;2023-02-04T06:11:58;101150.28;;;6.73;100.00
32083;BME280;18597;48.328;7.932;2023-02-04T06:14:24;101152.06;;;6.72;100.00
32083;BME280;18597;48.328;7.932;2023-02-04T06:16:50;101155.72;;;6.70;100.00
32083;BME280;18597;48.328;7.932;2023-02-04T06:19:16;101157.44;;;6.71;100.00
32083;BME280;18597;48.328;7.932;2023-02-04T06:21:42;101154.50;;;6.77;100.00
32083;BME280;18597;48.328;7.932;2023-02-04T06:24:08;101170.53;;;6.75;100.00
32083;BME280;18597;48.328;7.932;2023-02-04T06:26:34;101177.19;;;6.65;100.00
32083;BME280;18597;48.328;7.932;2023-02-04T06:29:00;101174.66;;;6.62;100.00
32083;BME280;18597;48.328;7.932;2023-02-04T06:31:26;101162.84;;;6.69;100.00
32083;BME280;18597;48.328;7.932;2023-02-04T06:33:52;101174.38;;;6.68;100.00
32083;BME280;18597;48.328;7.932;2023-02-04T06:36:19;101178.25;;;6.61;100.00
32083;BME280;18597;48.328;7.932;2023-02-04T06:38:45;101171.88;;;6.65;100.00
32083;BME280;18597;48.328;7.932;2023-02-04T06:41:11;101177.56;;;6.56;100.00
32083;BME280;18597;48.328;7.932;2023-02-04T06:43:37;101189.22;;;6.53;100.00
32083;BME280;18597;48.328;7.932;2023-02-04T06:46:03;101187.22;;;6.58;100.00
32083;BME280;18597;48.328;7.932;2023-02-04T06:48:29;101194.69;;;6.69;100.00
32083;BME280;18597;48.328;7.932;2023-02-04T06:50:55;101191.34;;;6.65;100.00
32083;BME280;18597;48.328;7.932;2023-02-04T06:53:21;101189.38;;;6.69;100.00
32083;BME280;18597;48.328;7.932;2023-02-04T06:55:47;101192.84;;;6.71;100.00
32083;BME280;18597;48.328;7.932;2023-02-04T06:58:13;101198.22;;;6.70;100.00
32083;BME280;18597;48.328;7.932;2023-02-04T07:00:38;101193.25;;;6.62;100.00
32083;BME280;18597;48.328;7.932;2023-02-04T07:03:04;101205.75;;;6.60;100.00
32083;BME280;18597;48.328;7.932;2023-02-04T07:05:32;101202.34;;;6.56;100.00
32083;BME280;18597;48.328;7.932;2023-02-04T07:07:58;101204.03;;;6.59;100.00
32083;BME280;18597;48.328;7.932;2023-02-04T07:10:24;101210.91;;;6.63;100.00
32083;BME280;18597;48.328;7.932;2023-02-04T07:12:50;101214.50;;;6.62;100.00
32083;BME280;18597;48.328;7.932;2023-02-04T07:15:16;101227.03;;;6.79;100.00
32083;BME280;18597;48.328;7.932;2023-02-04T07:17:42;101220.25;;;6.72;100.00
32083;BME280;18597;48.328;7.932;2023-02-04T07:20:10;101232.56;;;6.74;100.00
32083;BME280;18597;48.328;7.932;2023-02-04T07:22:36;101230.00;;;6.91;100.00
32083;BME280;18597;48.328;7.932;2023-02-04T07:25:02;101235.00;;;6.79;100.00
32083;BME280;18597;48.328;7.932;2023-02-04T07:27:28;101237.72;;;6.77;100.00
32083;BME280;18597;48.328;7.932;2023-02-04T07:29:54;101233.88;;;6.84;100.00
32083;BME280;18597;48.328;7.932;2023-02-04T07:32:20;101240.25;;;6.80;100.00
32083;BME280;18597;48.328;7.932;2023-02-04T07:34:45;101248.41;;;6.76;100.00
32083;BME280;18597;48.328;7.932;2023-02-04T07:37:13;101251.88;;;6.78;100.00
32083;BME280;18597;48.328;7.932;2023-02-04T07:39:39;101253.66;;;6.77;100.00
32083;BME280;18597;48.328;7.932;2023-02-04T07:42:05;101251.78;;;6.79;100.00
32083;BME280;18597;48.328;7.932;2023-02-04T07:44:31;101256.31;;;6.77;100.00
32083;BME280;18597;48.328;7.932;2023-02-04T07:46:57;101266.88;;;6.79;100.00
32083;BME280;18597;48.328;7.932;2023-02-04T07:49:23;101264.13;;;7.01;100.00
32083;BME280;18597;48.328;7.932;2023-02-04T07:51:49;101269.66;;;6.96;100.00
32083;BME280;18597;48.328;7.932;2023-02-04T07:54:15;101271.59;;;6.92;100.00
32083;BME280;18597;48.328;7.932;2023-02-04T07:56:41;101262.22;;;6.84;100.00
32083;BME280;18597;48.328;7.932;2023-02-04T07:59:06;101269.72;;;6.94;100.00
32083;BME280;18597;48.328;7.932;2023-02-04T08:01:32;101271.47;;;6.95;100.00
32083;BME280;18597;48.328;7.932;2023-02-04T08:03:58;101268.06;;;6.92;100.00
32083;BME280;18597;48.328;7.932;2023-02-04T08:06:24;101259.50;;;6.85;100.00
32083;BME280;18597;48.328;7.932;2023-02-04T08:08:50;101263.69;;;6.91;100.00
32083;BME280;18597;48.328;7.932;2023-02-04T08:11:16;101255.78;;;6.89;100.00
32083;BME280;18597;48.328;7.932;2023-02-04T08:13:41;101266.00;;;6.99;100.00
32083;BME280;18597;48.328;7.932;2023-02-04T08:16:07;101268.00;;;6.93;100.00
32083;BME280;18597;48.328;7.932;2023-02-04T08:18:33;101275.03;;;6.94;100.00
32083;BME280;18597;48.328;7.932;2023-02-04T08:20:59;101272.59;;;6.90;100.00
32083;BME280;18597;48.328;7.932;2023-02-04T08:23:26;101282.97;;;6.96;100.00
32083;BME280;18597;48.328;7.932;2023-02-04T08:25:52;101290.09;;;6.94;100.00
32083;BME280;18597;48.328;7.932;2023-02-04T08:28:17;101298.16;;;6.92;100.00
32083;BME280;18597;48.328;7.932;2023-02-04T08:30:43;101289.78;;;7.02;100.00
32083;BME280;18597;48.328;7.932;2023-02-04T08:33:09;101293.50;;;6.98;100.00
32083;BME280;18597;48.328;7.932;2023-02-04T08:35:35;101289.66;;;7.05;100.00
32083;BME280;18597;48.328;7.932;2023-02-04T08:38:01;101290.44;;;7.07;100.00
32083;BME280;18597;48.328;7.932;2023-02-04T08:40:27;101290.28;;;7.10;100.00
32083;BME280;18597;48.328;7.932;2023-02-04T08:42:53;101297.91;;;7.17;100.00
32083;BME280;18597;48.328;7.932;2023-02-04T08:45:18;101301.50;;;7.16;100.00
32083;BME280;18597;48.328;7.932;2023-02-04T08:47:45;101298.00;;;7.16;100.00
32083;BME280;18597;48.328;7.932;2023-02-04T08:50:11;101295.94;;;7.22;100.00
32083;BME280;18597;48.328;7.932;2023-02-04T08:52:37;101301.16;;;7.24;100.00
32083;BME280;18597;48.328;7.932;2023-02-04T08:55:03;101295.72;;;7.27;100.00
32083;BME280;18597;48.328;7.932;2023-02-04T08:57:29;101299.84;;;7.34;100.00
32083;BME280;18597;48.328;7.932;2023-02-04T08:59:55;101300.63;;;7.36;100.00
32083;BME280;18597;48.328;7.932;2023-02-04T09:02:21;101298.41;;;7.46;100.00
32083;BME280;18597;48.328;7.932;2023-02-04T09:04:47;101309.91;;;7.46;100.00
32083;BME280;18597;48.328;7.932;2023-02-04T09:07:13;101318.16;;;7.40;100.00
32083;BME280;18597;48.328;7.932;2023-02-04T09:09:38;101316.16;;;7.45;100.00
32083;BME280;18597;48.328;7.932;2023-02-04T09:12:04;101315.72;;;7.55;100.00
32083;BME280;18597;48.328;7.932;2023-02-04T09:14:30;101317.03;;;7.65;100.00
32083;BME280;18597;48.328;7.932;2023-02-04T09:16:56;101324.88;;;7.68;100.00
32083;BME280;18597;48.328;7.932;2023-02-04T09:19:22;101317.63;;;7.71;100.00
32083;BME280;18597;48.328;7.932;2023-02-04T09:21:52;101323.00;;;7.70;100.00
32083;BME280;18597;48.328;7.932;2023-02-04T09:24:18;101329.16;;;7.70;100.00
32083;BME280;18597;48.328;7.932;2023-02-04T09:26:44;101322.28;;;7.85;100.00
32083;BME280;18597;48.328;7.932;2023-02-04T09:29:10;101332.50;;;7.94;100.00
32083;BME280;18597;48.328;7.932;2023-02-04T09:31:36;101333.56;;;8.09;100.00
32083;BME280;18597;48.328;7.932;2023-02-04T09:34:03;101335.06;;;8.15;100.00
32083;BME280;18597;48.328;7.932;2023-02-04T09:36:29;101343.13;;;8.13;100.00
32083;BME280;18597;48.328;7.932;2023-02-04T09:38:57;101340.41;;;7.96;100.00
32083;BME280;18597;48.328;7.932;2023-02-04T09:41:23;101343.94;;;7.96;100.00
32083;BME280;18597;48.328;7.932;2023-02-04T09:43:48;101354.06;;;8.26;100.00
32083;BME280;18597;48.328;7.932;2023-02-04T09:46:21;101353.34;;;8.58;100.00
32083;BME280;18597;48.328;7.932;2023-02-04T09:48:48;101353.31;;;8.77;100.00
32083;BME280;18597;48.328;7.932;2023-02-04T09:51:21;101359.19;;;9.01;100.00
32083;BME280;18597;48.328;7.932;2023-02-04T09:53:48;101354.59;;;9.21;100.00
32083;BME280;18597;48.328;7.932;2023-02-04T09:56:14;101352.06;;;9.35;100.00
32083;BME280;18597;48.328;7.932;2023-02-04T09:58:41;101361.69;;;9.55;100.00
32083;BME280;18597;48.328;7.932;2023-02-04T10:01:18;101358.81;;;9.75;100.00
32083;BME280;18597;48.328;7.932;2023-02-04T10:03:47;101349.00;;;9.91;100.00
32083;BME280;18597;48.328;7.932;2023-02-04T10:06:18;101364.72;;;9.64;100.00
32083;BME280;18597;48.328;7.932;2023-02-04T10:08:47;101361.28;;;9.78;100.00
32083;BME280;18597;48.328;7.932;2023-02-04T10:11:15;101355.81;;;10.13;100.00
32083;BME280;18597;48.328;7.932;2023-02-04T10:13:48;101359.00;;;10.35;100.00
32083;BME280;18597;48.328;7.932;2023-02-04T10:16:24;101347.03;;;10.58;100.00
32083;BME280;18597;48.328;7.932;2023-02-04T10:18:57;101345.72;;;10.79;100.00
32083;BME280;18597;48.328;7.932;2023-02-04T10:21:28;101354.53;;;10.81;100.00
32083;BME280;18597;48.328;7.932;2023-02-04T10:24:02;101354.59;;;10.96;100.00
32083;BME280;18597;48.328;7.932;2023-02-04T10:26:30;101361.25;;;11.03;100.00
32083;BME280;18597;48.328;7.932;2023-02-04T10:29:01;101360.78;;;10.96;100.00
32083;BME280;18597;48.328;7.932;2023-02-04T10:31:39;101358.44;;;10.76;100.00
32083;BME280;18597;48.328;7.932;2023-02-04T10:36:50;101361.78;;;10.34;100.00
32083;BME280;18597;48.328;7.932;2023-02-04T10:39:21;101362.06;;;10.29;100.00
32083;BME280;18597;48.328;7.932;2023-02-04T10:41:52;101357.25;;;10.50;100.00
32083;BME280;18597;48.328;7.932;2023-02-04T10:44:35;101348.00;;;10.71;100.00
32083;BME280;18597;48.328;7.932;2023-02-04T10:47:04;101347.88;;;10.89;100.00
32083;BME280;18597;48.328;7.932;2023-02-04T10:49:32;101342.94;;;10.97;100.00
32083;BME280;18597;48.328;7.932;2023-02-04T10:52:00;101343.78;;;10.97;100.00
32083;BME280;18597;48.328;7.932;2023-02-04T10:54:36;101346.16;;;11.02;100.00
32083;BME280;18597;48.328;7.932;2023-02-04T10:57:26;101358.22;;;11.09;100.00
32083;BME280;18597;48.328;7.932;2023-02-04T10:59:57;101349.84;;;11.15;100.00
32083;BME280;18597;48.328;7.932;2023-02-04T11:03:08;101352.50;;;11.15;100.00
32083;BME280;18597;48.328;7.932;2023-02-04T11:05:23;101355.44;;;10.96;100.00
32083;BME280;18597;48.328;7.932;2023-02-04T11:07:53;101355.09;;;10.56;100.00
32083;BME280;18597;48.328;7.932;2023-02-04T11:10:23;101360.91;;;10.33;100.00
32083;BME280;18597;48.328;7.932;2023-02-04T11:15:49;101351.28;;;10.76;100.00
32083;BME280;18597;48.328;7.932;2023-02-04T11:20:57;101348.78;;;11.18;100.00
32083;BME280;18597;48.328;7.932;2023-02-04T11:23:31;101355.00;;;11.04;100.00
32083;BME280;18597;48.328;7.932;2023-02-04T11:26:09;101353.53;;;10.68;100.00
32083;BME280;18597;48.328;7.932;2023-02-04T11:34:23;101339.91;;;10.57;100.00
32083;BME280;18597;48.328;7.932;2023-02-04T11:37:15;101337.19;;;11.03;100.00
32083;BME280;18597;48.328;7.932;2023-02-04T11:39:47;101342.03;;;11.26;100.00
32083;BME280;18597;48.328;7.932;2023-02-04T11:42:38;101339.06;;;11.45;100.00
32083;BME280;18597;48.328;7.932;2023-02-04T11:45:20;101341.53;;;11.62;100.00
32083;BME280;18597;48.328;7.932;2023-02-04T11:47:50;101343.38;;;11.62;100.00
32083;BME280;18597;48.328;7.932;2023-02-04T11:50:33;101341.06;;;11.70;100.00
32083;BME280;18597;48.328;7.932;2023-02-04T11:53:00;101340.50;;;11.22;100.00
32083;BME280;18597;48.328;7.932;2023-02-04T11:55:30;101342.84;;;10.98;100.00
32083;BME280;18597;48.328;7.932;2023-02-04T11:57:56;101343.91;;;10.80;100.00
32083;BME280;18597;48.328;7.932;2023-02-04T12:00:28;101345.63;;;11.25;100.00
32083;BME280;18597;48.328;7.932;2023-02-04T12:02:59;101354.16;;;11.32;100.00
32083;BME280;18597;48.328;7.932;2023-02-04T12:05:44;101358.38;;;11.50;100.00
32083;BME280;18597;48.328;7.932;2023-02-04T12:08:29;101353.09;;;11.77;95.68
32083;BME280;18597;48.328;7.932;2023-02-04T12:11:09;101354.78;;;12.21;89.80
32083;BME280;18597;48.328;7.932;2023-02-04T12:13:53;101351.63;;;12.56;76.40
32083;BME280;18597;48.328;7.932;2023-02-04T12:16:20;101358.34;;;12.48;70.55
32083;BME280;18597;48.328;7.932;2023-02-04T12:18:47;101358.66;;;12.17;77.49
32083;BME280;18597;48.328;7.932;2023-02-04T12:21:13;101354.78;;;11.94;76.54
32083;BME280;18597;48.328;7.932;2023-02-04T12:23:39;101354.75;;;11.80;81.33
32083;BME280;18597;48.328;7.932;2023-02-04T12:26:07;101348.34;;;11.54;83.73
32083;BME280;18597;48.328;7.932;2023-02-04T12:28:34;101346.22;;;11.30;85.87
32083;BME280;18597;48.328;7.932;2023-02-04T12:31:00;101343.13;;;11.08;85.35
32083;BME280;18597;48.328;7.932;2023-02-04T12:33:26;101349.06;;;11.13;84.06
32083;BME280;18597;48.328;7.932;2023-02-04T12:35:52;101346.78;;;11.21;86.06
32083;BME280;18597;48.328;7.932;2023-02-04T12:38:19;101345.84;;;11.22;86.24
32083;BME280;18597;48.328;7.932;2023-02-04T12:40:45;101352.75;;;11.26;89.00
32083;BME280;18597;48.328;7.932;2023-02-04T12:43:11;101354.25;;;11.30;84.28
32083;BME280;18597;48.328;7.932;2023-02-04T12:45:37;101353.50;;;11.28;86.00
32083;BME280;18597;48.328;7.932;2023-02-04T12:48:04;101351.78;;;11.27;87.18
32083;BME280;18597;48.328;7.932;2023-02-04T12:50:31;101350.22;;;11.23;76.42
32083;BME280;18597;48.328;7.932;2023-02-04T12:52:59;101356.88;;;11.02;76.29
32083;BME280;18597;48.328;7.932;2023-02-04T12:55:27;101354.34;;;10.84;79.02
32083;BME280;18597;48.328;7.932;2023-02-04T12:57:54;101355.06;;;10.72;81.57
32083;BME280;18597;48.328;7.932;2023-02-04T13:00:22;101356.97;;;10.70;80.95
32083;BME280;18597;48.328;7.932;2023-02-04T13:02:49;101347.50;;;10.65;82.43
32083;BME280;18597;48.328;7.932;2023-02-04T13:05:15;101348.84;;;10.72;80.82